Погода Бубанзана неделю

Бубанза, Бурунди

23 - 29 июля
  • 23июля
    Сегодня
    +17°
    +29°
    Облачно с прояснениями
    ВремяПогодаТемператураВлажностьДавлениеВетер, м/сВероятность осадков
    02:00Небольшая облачность+22°C79 %666 мм1.0 м/с4 %
    05:00Небольшая облачность+20°C81 %665 мм0.9 м/с5 %
    08:00Облачно с прояснениями+22°C62 %667 мм0.3 м/с5 %
    11:00Облачно с прояснениями+28°C45 %668 мм2.7 м/с6 %
    14:00Облачно с прояснениями+28°C46 %667 мм3.7 м/с7 %
    17:00Ясно и безоблачно+26°C46 %665 мм1.9 м/с8 %
    20:00Ясно и безоблачно+22°C61 %665 мм1.7 м/с3 %
    23:00Ясно и безоблачно+21°C63 %666 мм0.8 м/с5 %
  • 24июля
    Среда
    +18°
    +29°
    Облачно с прояснениями
    ВремяПогодаТемператураВлажностьДавлениеВетер, м/сВероятность осадков
    02:00Практически безоблачно+21°C72 %665 мм1.2 м/с5 %
    05:00Небольшая облачность+19°C74 %665 мм1.5 м/с5 %
    08:00Облачно с прояснениями+22°C55 %667 мм0.2 м/с5 %
    11:00Небольшая облачность+27°C34 %668 мм2.2 м/с5 %
    14:00Облачно с прояснениями+28°C28 %665 мм3.8 м/с5 %
    17:00Ясно и безоблачно+26°C40 %664 мм2.6 м/с5 %
    20:00Практически безоблачно+22°C50 %664 мм0.9 м/с5 %
    23:00Ясно и безоблачно+20°C53 %665 мм1.8 м/с5 %
  • 25июля
    Четверг
    +19°
    +31°
    Небольшая облачность
    ВремяПогодаТемператураВлажностьДавлениеВетер, м/сВероятность осадков
    02:00Практически безоблачно+20°C58 %664 мм1.2 м/с5 %
    05:00Ясно и безоблачно+19°C62 %663 мм1.0 м/с5 %
    08:00Ясно и безоблачно+22°C49 %666 мм0.5 м/с5 %
    11:00Практически безоблачно+28°C29 %666 мм1.8 м/с5 %
    14:00Небольшая облачность+30°C26 %664 мм4.0 м/с4 %
    17:00Ясно и безоблачно+27°C40 %663 мм2.2 м/с3 %
    20:00Ясно и безоблачно+22°C55 %663 мм1.2 м/с5 %
    23:00Небольшая облачность+21°C52 %664 мм1.3 м/с5 %
  • 26июля
    Пятница
    +18°
    +30°
    Ясно и безоблачно
    ВремяПогодаТемператураВлажностьДавлениеВетер, м/сВероятность осадков
    02:00Облачно с прояснениями+21°C50 %662 мм1.3 м/с5 %
    05:00Ясно и безоблачно+20°C43 %662 мм0.9 м/с5 %
    08:00Ясно и безоблачно+23°C38 %665 мм0.9 м/с5 %
    11:00Ясно и безоблачно+28°C30 %665 мм2.3 м/с5 %
    14:00Ясно и безоблачно+30°C30 %663 мм3.6 м/с5 %
    17:00Ясно и безоблачно+25°C40 %662 мм1.6 м/с5 %
    20:00Ясно и безоблачно+22°C47 %662 мм1.2 м/с5 %
    23:00Практически безоблачно+19°C47 %663 мм1.7 м/с5 %
  • 27июля
    Суббота
    +19°
    +30°
    Ясно и безоблачно
    ВремяПогодаТемператураВлажностьДавлениеВетер, м/сВероятность осадков
    02:00Небольшая облачность+20°C45 %662 мм0.9 м/с5 %
    05:00Небольшая облачность+21°C41 %663 мм0.9 м/с5 %
    08:00Ясно и безоблачно+23°C35 %665 мм0.3 м/с5 %
    11:00Небольшая облачность+29°C26 %665 мм2.5 м/с5 %
    14:00Ясно и безоблачно+30°C31 %664 мм3.5 м/с5 %
    17:00Ясно и безоблачно+25°C41 %662 мм1.8 м/с5 %
    20:00Ясно и безоблачно+22°C48 %662 мм1.5 м/с5 %
    23:00Ясно и безоблачно+20°C42 %663 мм1.9 м/с5 %
Мы используем cookies
Соглашаюсь